sensor_id;sensor_type;location;lat;lon;timestamp;pressure;altitude;pressure_sealevel;temperature;humidity
11605;BME280;5858;43.076;25.626;2022-10-31T00:00:47;99636.75;;;14.28;74.07
11605;BME280;5858;43.076;25.626;2022-10-31T00:03:14;99644.00;;;14.27;73.27
11605;BME280;5858;43.076;25.626;2022-10-31T00:05:41;99495.25;;;13.30;73.75
11605;BME280;5858;43.076;25.626;2022-10-31T00:08:10;99602.63;;;14.00;74.37
11605;BME280;5858;43.076;25.626;2022-10-31T00:10:38;99646.25;;;14.24;74.07
11605;BME280;5858;43.076;25.626;2022-10-31T00:13:05;99624.78;;;14.02;74.47
11605;BME280;5858;43.076;25.626;2022-10-31T00:15:32;99566.13;;;13.57;74.96
11605;BME280;5858;43.076;25.626;2022-10-31T00:17:59;99522.88;;;13.23;75.35
11605;BME280;5858;43.076;25.626;2022-10-31T00:20:26;99564.03;;;13.52;75.09
11605;BME280;5858;43.076;25.626;2022-10-31T00:22:54;99652.34;;;14.11;75.30
11605;BME280;5858;43.076;25.626;2022-10-31T00:25:25;99628.69;;;14.00;75.30
11605;BME280;5858;43.076;25.626;2022-10-31T00:27:52;99592.38;;;13.82;75.82
11605;BME280;5858;43.076;25.626;2022-10-31T00:30:19;99602.56;;;13.87;76.37
11605;BME280;5858;43.076;25.626;2022-10-31T00:32:46;99651.19;;;14.20;77.66
11605;BME280;5858;43.076;25.626;2022-10-31T00:35:13;99485.38;;;13.15;78.17
11605;BME280;5858;43.076;25.626;2022-10-31T00:37:41;99536.47;;;13.43;78.95
11605;BME280;5858;43.076;25.626;2022-10-31T00:40:09;99657.34;;;14.14;79.69
11605;BME280;5858;43.076;25.626;2022-10-31T00:42:38;99664.34;;;14.08;79.83
11605;BME280;5858;43.076;25.626;2022-10-31T00:45:07;99604.97;;;13.75;80.17
11605;BME280;5858;43.076;25.626;2022-10-31T00:47:35;99640.09;;;14.02;80.58
11605;BME280;5858;43.076;25.626;2022-10-31T00:50:03;99672.84;;;14.12;80.67
11605;BME280;5858;43.076;25.626;2022-10-31T00:52:30;99578.00;;;13.69;80.85
11605;BME280;5858;43.076;25.626;2022-10-31T00:54:57;99653.59;;;14.08;81.23
11605;BME280;5858;43.076;25.626;2022-10-31T00:57:24;99627.56;;;13.81;81.48
11605;BME280;5858;43.076;25.626;2022-10-31T00:59:53;99663.09;;;14.04;81.75
11605;BME280;5858;43.076;25.626;2022-10-31T01:02:20;99663.69;;;14.00;81.76
11605;BME280;5858;43.076;25.626;2022-10-31T01:04:47;99670.31;;;14.04;80.98
11605;BME280;5858;43.076;25.626;2022-10-31T01:07:14;99653.13;;;13.98;81.42
11605;BME280;5858;43.076;25.626;2022-10-31T01:09:41;99598.44;;;13.63;81.40
11605;BME280;5858;43.076;25.626;2022-10-31T01:12:08;99654.97;;;13.98;80.74
11605;BME280;5858;43.076;25.626;2022-10-31T01:14:35;99625.66;;;13.75;80.67
11605;BME280;5858;43.076;25.626;2022-10-31T01:17:04;99671.91;;;13.92;80.84
11605;BME280;5858;43.076;25.626;2022-10-31T01:19:31;99619.63;;;13.73;80.84
11605;BME280;5858;43.076;25.626;2022-10-31T01:21:58;99662.16;;;13.91;81.63
11605;BME280;5858;43.076;25.626;2022-10-31T01:24:25;99654.09;;;13.91;81.96
11605;BME280;5858;43.076;25.626;2022-10-31T01:26:52;99636.97;;;13.70;82.05
11605;BME280;5858;43.076;25.626;2022-10-31T01:29:19;99655.56;;;13.93;81.58
11605;BME280;5858;43.076;25.626;2022-10-31T01:31:46;99605.44;;;13.58;81.52
11605;BME280;5858;43.076;25.626;2022-10-31T01:34:16;99648.47;;;13.85;81.31
11605;BME280;5858;43.076;25.626;2022-10-31T01:36:44;99581.53;;;13.41;81.43
11605;BME280;5858;43.076;25.626;2022-10-31T01:39:14;99643.53;;;13.89;80.63
11605;BME280;5858;43.076;25.626;2022-10-31T01:41:44;99597.75;;;13.54;80.45
11605;BME280;5858;43.076;25.626;2022-10-31T01:44:53;99665.69;;;13.91;80.77
11605;BME280;5858;43.076;25.626;2022-10-31T01:47:35;99669.56;;;13.82;82.47
11605;BME280;5858;43.076;25.626;2022-10-31T01:50:11;99656.91;;;13.76;81.88
11605;BME280;5858;43.076;25.626;2022-10-31T01:52:41;99660.72;;;13.88;82.17
11605;BME280;5858;43.076;25.626;2022-10-31T01:55:12;99648.56;;;13.71;82.44
11605;BME280;5858;43.076;25.626;2022-10-31T01:57:42;99674.31;;;13.80;82.01
11605;BME280;5858;43.076;25.626;2022-10-31T02:00:12;99681.19;;;13.89;80.77
11605;BME280;5858;43.076;25.626;2022-10-31T02:02:39;99648.19;;;13.74;80.73
11605;BME280;5858;43.076;25.626;2022-10-31T02:05:11;99667.75;;;13.89;80.70
11605;BME280;5858;43.076;25.626;2022-10-31T02:07:42;99566.47;;;13.19;79.94
11605;BME280;5858;43.076;25.626;2022-10-31T02:10:11;99661.44;;;13.75;79.91
11605;BME280;5858;43.076;25.626;2022-10-31T02:12:38;99678.75;;;13.94;80.17
11605;BME280;5858;43.076;25.626;2022-10-31T02:15:07;99694.09;;;14.00;79.29
11605;BME280;5858;43.076;25.626;2022-10-31T02:17:35;99558.25;;;13.06;79.13
11605;BME280;5858;43.076;25.626;2022-10-31T02:20:13;99594.41;;;13.46;79.33
11605;BME280;5858;43.076;25.626;2022-10-31T02:22:57;99680.41;;;13.95;79.80
11605;BME280;5858;43.076;25.626;2022-10-31T02:28:40;99669.44;;;13.97;79.54
11605;BME280;5858;43.076;25.626;2022-10-31T02:31:21;99582.63;;;13.47;79.58
11605;BME280;5858;43.076;25.626;2022-10-31T02:33:57;99666.47;;;13.85;80.12
11605;BME280;5858;43.076;25.626;2022-10-31T02:36:28;99550.44;;;13.11;80.09
11605;BME280;5858;43.076;25.626;2022-10-31T02:39:07;99670.16;;;13.77;80.73
11605;BME280;5858;43.076;25.626;2022-10-31T02:41:45;99516.09;;;12.78;81.15
11605;BME280;5858;43.076;25.626;2022-10-31T02:44:19;99575.28;;;13.34;81.31
11605;BME280;5858;43.076;25.626;2022-10-31T02:46:53;99650.50;;;13.77;82.02
11605;BME280;5858;43.076;25.626;2022-10-31T02:49:27;99648.94;;;13.68;82.30
11605;BME280;5858;43.076;25.626;2022-10-31T02:51:56;99656.19;;;13.67;81.94
11605;BME280;5858;43.076;25.626;2022-10-31T02:54:25;99652.63;;;13.60;81.62
11605;BME280;5858;43.076;25.626;2022-10-31T02:56:56;99670.16;;;13.56;81.62
11605;BME280;5858;43.076;25.626;2022-10-31T02:59:26;99628.69;;;13.22;81.25
11605;BME280;5858;43.076;25.626;2022-10-31T03:02:18;99682.84;;;13.62;80.40
11605;BME280;5858;43.076;25.626;2022-10-31T03:04:59;99595.69;;;12.86;79.17
11605;BME280;5858;43.076;25.626;2022-10-31T03:07:35;99687.66;;;13.45;79.66
11605;BME280;5858;43.076;25.626;2022-10-31T03:10:16;99697.56;;;13.45;79.56
11605;BME280;5858;43.076;25.626;2022-10-31T03:12:49;99684.94;;;13.24;79.60
11605;BME280;5858;43.076;25.626;2022-10-31T03:15:23;99668.91;;;13.16;79.84
11605;BME280;5858;43.076;25.626;2022-10-31T03:17:57;99723.13;;;13.34;80.08
11605;BME280;5858;43.076;25.626;2022-10-31T03:20:31;99697.66;;;13.30;79.92
11605;BME280;5858;43.076;25.626;2022-10-31T03:23:01;99622.50;;;12.65;79.65
11605;BME280;5858;43.076;25.626;2022-10-31T03:25:30;99644.31;;;12.76;79.84
11605;BME280;5858;43.076;25.626;2022-10-31T03:27:59;99710.38;;;13.07;80.54
11605;BME280;5858;43.076;25.626;2022-10-31T03:30:29;99712.06;;;12.93;81.21
11605;BME280;5858;43.076;25.626;2022-10-31T03:32:59;99717.97;;;13.03;81.25
11605;BME280;5858;43.076;25.626;2022-10-31T03:35:29;99711.78;;;13.03;81.17
11605;BME280;5858;43.076;25.626;2022-10-31T03:37:58;99718.19;;;12.87;81.86
11605;BME280;5858;43.076;25.626;2022-10-31T03:40:27;99715.91;;;12.84;82.07
11605;BME280;5858;43.076;25.626;2022-10-31T03:42:58;99719.03;;;12.87;82.27
11605;BME280;5858;43.076;25.626;2022-10-31T03:45:29;99667.69;;;12.46;82.36
11605;BME280;5858;43.076;25.626;2022-10-31T03:47:59;99652.91;;;12.36;82.18
11605;BME280;5858;43.076;25.626;2022-10-31T03:50:31;99678.63;;;12.30;82.74
11605;BME280;5858;43.076;25.626;2022-10-31T03:53:06;99741.91;;;12.69;83.01
11605;BME280;5858;43.076;25.626;2022-10-31T03:55:40;99658.00;;;12.16;83.53
11605;BME280;5858;43.076;25.626;2022-10-31T03:58:10;99729.22;;;12.63;83.72
11605;BME280;5858;43.076;25.626;2022-10-31T04:00:40;99668.34;;;12.19;83.85
11605;BME280;5858;43.076;25.626;2022-10-31T04:03:15;99608.25;;;11.98;83.28
11605;BME280;5858;43.076;25.626;2022-10-31T04:05:45;99711.75;;;12.52;83.18
11605;BME280;5858;43.076;25.626;2022-10-31T04:08:16;99722.13;;;12.40;83.50
11605;BME280;5858;43.076;25.626;2022-10-31T04:10:45;99650.59;;;12.03;83.79
11605;BME280;5858;43.076;25.626;2022-10-31T04:13:16;99687.59;;;12.22;83.41
11605;BME280;5858;43.076;25.626;2022-10-31T04:15:44;99679.53;;;12.22;83.37
11605;BME280;5858;43.076;25.626;2022-10-31T04:18:14;99710.81;;;12.59;83.55
11605;BME280;5858;43.076;25.626;2022-10-31T04:20:41;99746.53;;;12.89;83.36
11605;BME280;5858;43.076;25.626;2022-10-31T04:23:15;99745.34;;;12.92;83.31
11605;BME280;5858;43.076;25.626;2022-10-31T04:25:44;99562.28;;;11.87;83.08
11605;BME280;5858;43.076;25.626;2022-10-31T04:28:11;99660.31;;;12.34;84.10
11605;BME280;5858;43.076;25.626;2022-10-31T04:30:38;99653.47;;;12.31;83.72
11605;BME280;5858;43.076;25.626;2022-10-31T04:33:06;99744.31;;;12.93;83.56
11605;BME280;5858;43.076;25.626;2022-10-31T04:35:34;99686.50;;;12.46;83.76
11605;BME280;5858;43.076;25.626;2022-10-31T04:38:01;99663.91;;;12.11;83.43
11605;BME280;5858;43.076;25.626;2022-10-31T04:40:28;99686.69;;;12.45;83.19
11605;BME280;5858;43.076;25.626;2022-10-31T04:42:55;99718.13;;;12.51;83.47
11605;BME280;5858;43.076;25.626;2022-10-31T04:45:22;99708.97;;;12.45;83.60
11605;BME280;5858;43.076;25.626;2022-10-31T04:47:49;99767.94;;;12.83;83.88
11605;BME280;5858;43.076;25.626;2022-10-31T04:50:16;99779.13;;;12.57;85.24
11605;BME280;5858;43.076;25.626;2022-10-31T04:52:45;99626.28;;;11.67;85.20
11605;BME280;5858;43.076;25.626;2022-10-31T04:55:13;99772.19;;;12.63;85.11
11605;BME280;5858;43.076;25.626;2022-10-31T04:57:41;99780.06;;;12.64;84.57
11605;BME280;5858;43.076;25.626;2022-10-31T05:00:10;99781.91;;;12.64;84.92
11605;BME280;5858;43.076;25.626;2022-10-31T05:02:43;99780.25;;;12.63;84.92
11605;BME280;5858;43.076;25.626;2022-10-31T05:05:10;99770.34;;;12.48;85.14
11605;BME280;5858;43.076;25.626;2022-10-31T05:07:38;99707.38;;;12.07;84.85
11605;BME280;5858;43.076;25.626;2022-10-31T05:10:11;99792.09;;;12.53;85.20
11605;BME280;5858;43.076;25.626;2022-10-31T05:12:45;99800.97;;;12.54;84.93
11605;BME280;5858;43.076;25.626;2022-10-31T05:15:12;99796.84;;;12.28;85.83
11605;BME280;5858;43.076;25.626;2022-10-31T05:17:40;99698.75;;;11.74;85.32
11605;BME280;5858;43.076;25.626;2022-10-31T05:20:07;99726.16;;;12.07;84.87
11605;BME280;5858;43.076;25.626;2022-10-31T05:22:34;99816.91;;;12.55;84.94
11605;BME280;5858;43.076;25.626;2022-10-31T05:25:02;99814.13;;;12.64;84.87
11605;BME280;5858;43.076;25.626;2022-10-31T05:27:31;99754.59;;;12.31;84.75
11605;BME280;5858;43.076;25.626;2022-10-31T05:29:58;99735.13;;;12.14;84.48
11605;BME280;5858;43.076;25.626;2022-10-31T05:32:25;99743.09;;;12.22;84.57
11605;BME280;5858;43.076;25.626;2022-10-31T05:34:52;99820.78;;;12.68;84.29
11605;BME280;5858;43.076;25.626;2022-10-31T05:37:19;99751.97;;;12.22;83.74
11605;BME280;5858;43.076;25.626;2022-10-31T05:39:46;99743.03;;;12.30;84.05
11605;BME280;5858;43.076;25.626;2022-10-31T05:42:14;99786.53;;;12.55;83.75
11605;BME280;5858;43.076;25.626;2022-10-31T05:44:44;99819.88;;;12.75;83.61
11605;BME280;5858;43.076;25.626;2022-10-31T05:47:11;99742.50;;;12.35;83.43
11605;BME280;5858;43.076;25.626;2022-10-31T05:49:38;99813.50;;;12.91;83.20
11605;BME280;5858;43.076;25.626;2022-10-31T05:52:05;99840.53;;;13.04;83.15
11605;BME280;5858;43.076;25.626;2022-10-31T05:54:32;99763.38;;;12.69;82.94
11605;BME280;5858;43.076;25.626;2022-10-31T05:56:59;99809.88;;;12.99;82.28
11605;BME280;5858;43.076;25.626;2022-10-31T05:59:26;99838.13;;;13.24;82.08
11605;BME280;5858;43.076;25.626;2022-10-31T06:01:55;99836.00;;;13.19;81.93
11605;BME280;5858;43.076;25.626;2022-10-31T06:04:22;99836.84;;;13.20;81.33
11605;BME280;5858;43.076;25.626;2022-10-31T06:06:49;99835.88;;;13.42;80.92
11605;BME280;5858;43.076;25.626;2022-10-31T06:09:16;99789.38;;;13.12;79.48
11605;BME280;5858;43.076;25.626;2022-10-31T06:11:43;99821.34;;;13.37;78.62
11605;BME280;5858;43.076;25.626;2022-10-31T06:14:10;99842.44;;;13.54;78.41
11605;BME280;5858;43.076;25.626;2022-10-31T06:16:37;99850.50;;;13.54;78.62
11605;BME280;5858;43.076;25.626;2022-10-31T06:19:06;99741.88;;;12.98;78.54
11605;BME280;5858;43.076;25.626;2022-10-31T06:21:33;99851.19;;;13.78;78.46
11605;BME280;5858;43.076;25.626;2022-10-31T06:24:00;99677.84;;;12.80;77.48
11605;BME280;5858;43.076;25.626;2022-10-31T06:26:28;99857.22;;;14.01;77.85
11605;BME280;5858;43.076;25.626;2022-10-31T06:28:55;99784.63;;;13.65;76.91
11605;BME280;5858;43.076;25.626;2022-10-31T06:31:23;99866.78;;;14.25;77.16
11605;BME280;5858;43.076;25.626;2022-10-31T06:33:50;99864.59;;;14.35;77.45
11605;BME280;5858;43.076;25.626;2022-10-31T06:36:18;99781.75;;;13.88;76.49
11605;BME280;5858;43.076;25.626;2022-10-31T06:38:45;99851.63;;;14.45;77.02
11605;BME280;5858;43.076;25.626;2022-10-31T06:41:13;99862.06;;;14.55;75.43
11605;BME280;5858;43.076;25.626;2022-10-31T06:43:40;99847.66;;;14.41;75.06
11605;BME280;5858;43.076;25.626;2022-10-31T06:46:07;99716.25;;;13.74;74.47
11605;BME280;5858;43.076;25.626;2022-10-31T06:48:39;99883.19;;;14.79;74.99
11605;BME280;5858;43.076;25.626;2022-10-31T06:51:12;99883.88;;;14.88;74.18
11605;BME280;5858;43.076;25.626;2022-10-31T06:53:44;99866.28;;;14.92;73.77
11605;BME280;5858;43.076;25.626;2022-10-31T06:56:22;99736.38;;;14.06;74.06
11605;BME280;5858;43.076;25.626;2022-10-31T06:58:51;99776.25;;;14.45;73.82
11605;BME280;5858;43.076;25.626;2022-10-31T07:01:20;99896.31;;;15.17;73.75
11605;BME280;5858;43.076;25.626;2022-10-31T07:03:50;99885.50;;;15.17;73.32
11605;BME280;5858;43.076;25.626;2022-10-31T07:06:19;99766.75;;;14.49;72.89
11605;BME280;5858;43.076;25.626;2022-10-31T07:08:53;99870.47;;;15.36;72.48
11605;BME280;5858;43.076;25.626;2022-10-31T07:11:36;99798.28;;;14.90;72.67
11605;BME280;5858;43.076;25.626;2022-10-31T07:14:04;99900.38;;;15.48;72.26
11605;BME280;5858;43.076;25.626;2022-10-31T07:16:31;99859.50;;;15.44;72.39
11605;BME280;5858;43.076;25.626;2022-10-31T07:19:01;99899.16;;;15.50;72.89
11605;BME280;5858;43.076;25.626;2022-10-31T07:21:38;99770.72;;;14.95;72.13
11605;BME280;5858;43.076;25.626;2022-10-31T07:24:22;99840.81;;;15.42;72.59
11605;BME280;5858;43.076;25.626;2022-10-31T07:26:49;99762.28;;;15.11;72.03
11605;BME280;5858;43.076;25.626;2022-10-31T07:29:24;99884.16;;;15.82;71.69
11605;BME280;5858;43.076;25.626;2022-10-31T07:31:58;99835.97;;;15.72;71.27
11605;BME280;5858;43.076;25.626;2022-10-31T07:34:26;99864.06;;;15.98;71.63
11605;BME280;5858;43.076;25.626;2022-10-31T07:36:55;99792.59;;;15.67;70.42
11605;BME280;5858;43.076;25.626;2022-10-31T07:39:23;99872.00;;;16.19;70.42
11605;BME280;5858;43.076;25.626;2022-10-31T07:41:53;99688.03;;;14.95;70.34
11605;BME280;5858;43.076;25.626;2022-10-31T07:44:21;99751.84;;;15.49;70.41
11605;BME280;5858;43.076;25.626;2022-10-31T07:46:48;99820.03;;;15.97;69.86
11605;BME280;5858;43.076;25.626;2022-10-31T07:49:15;99691.25;;;15.32;69.32
11605;BME280;5858;43.076;25.626;2022-10-31T07:51:45;99794.94;;;16.10;69.03
11605;BME280;5858;43.076;25.626;2022-10-31T07:54:14;99835.00;;;16.40;69.22
11605;BME280;5858;43.076;25.626;2022-10-31T07:56:44;99746.13;;;15.98;68.68
11605;BME280;5858;43.076;25.626;2022-10-31T07:59:15;99850.41;;;16.72;68.92
11605;BME280;5858;43.076;25.626;2022-10-31T08:01:57;99754.63;;;16.28;68.31
11605;BME280;5858;43.076;25.626;2022-10-31T08:04:32;99864.06;;;17.10;67.66
11605;BME280;5858;43.076;25.626;2022-10-31T08:06:59;99858.66;;;17.17;67.31
11605;BME280;5858;43.076;25.626;2022-10-31T08:09:27;99847.97;;;17.35;66.83
11605;BME280;5858;43.076;25.626;2022-10-31T08:11:58;99701.59;;;16.60;66.21
11605;BME280;5858;43.076;25.626;2022-10-31T08:14:26;99785.31;;;17.38;65.44
11605;BME280;5858;43.076;25.626;2022-10-31T08:16:54;99815.06;;;17.83;65.33
11605;BME280;5858;43.076;25.626;2022-10-31T08:19:22;99797.13;;;17.88;64.45
11605;BME280;5858;43.076;25.626;2022-10-31T08:21:50;99843.81;;;18.40;63.53
11605;BME280;5858;43.076;25.626;2022-10-31T08:24:18;99810.91;;;18.37;62.82
11605;BME280;5858;43.076;25.626;2022-10-31T08:36:33;99839.25;;;19.09;61.50
11605;BME280;5858;43.076;25.626;2022-10-31T08:39:01;99779.25;;;18.80;61.20
11605;BME280;5858;43.076;25.626;2022-10-31T08:41:29;99786.50;;;19.05;60.14
11605;BME280;5858;43.076;25.626;2022-10-31T08:43:56;99826.72;;;19.44;59.58
11605;BME280;5858;43.076;25.626;2022-10-31T08:46:23;99805.69;;;19.40;60.23
11605;BME280;5858;43.076;25.626;2022-10-31T08:48:51;99829.94;;;19.71;58.79
11605;BME280;5858;43.076;25.626;2022-10-31T08:51:18;99822.94;;;19.64;59.05
11605;BME280;5858;43.076;25.626;2022-10-31T08:53:46;99775.50;;;19.48;58.28
11605;BME280;5858;43.076;25.626;2022-10-31T08:56:13;99842.25;;;20.16;58.96
11605;BME280;5858;43.076;25.626;2022-10-31T08:58:41;99818.72;;;20.21;57.99
11605;BME280;5858;43.076;25.626;2022-10-31T09:01:08;99730.00;;;19.92;57.60
11605;BME280;5858;43.076;25.626;2022-10-31T09:03:35;99779.22;;;20.60;57.68
11605;BME280;5858;43.076;25.626;2022-10-31T09:06:03;99722.94;;;20.61;57.41
11605;BME280;5858;43.076;25.626;2022-10-31T09:08:34;99685.94;;;20.60;51.58
11605;BME280;5858;43.076;25.626;2022-10-31T09:11:03;99798.38;;;21.41;50.60
11605;BME280;5858;43.076;25.626;2022-10-31T09:13:37;99844.31;;;21.77;50.47
11605;BME280;5858;43.076;25.626;2022-10-31T09:16:05;99813.94;;;21.57;55.24
11605;BME280;5858;43.076;25.626;2022-10-31T09:18:35;99814.56;;;21.76;56.31
11605;BME280;5858;43.076;25.626;2022-10-31T09:21:02;99835.75;;;21.85;52.60
11605;BME280;5858;43.076;25.626;2022-10-31T09:23:32;99784.22;;;21.55;51.96
11605;BME280;5858;43.076;25.626;2022-10-31T09:26:01;99797.84;;;21.84;50.83
11605;BME280;5858;43.076;25.626;2022-10-31T09:28:30;99838.72;;;22.12;49.89
11605;BME280;5858;43.076;25.626;2022-10-31T09:30:58;99833.50;;;21.82;51.50
11605;BME280;5858;43.076;25.626;2022-10-31T09:33:25;99771.28;;;21.22;50.15
11605;BME280;5858;43.076;25.626;2022-10-31T09:35:52;99842.63;;;21.48;50.12
11605;BME280;5858;43.076;25.626;2022-10-31T09:38:20;99777.19;;;20.91;50.82
11605;BME280;5858;43.076;25.626;2022-10-31T09:40:55;99791.50;;;20.86;52.22
11605;BME280;5858;43.076;25.626;2022-10-31T09:43:25;99840.88;;;21.18;51.32
11605;BME280;5858;43.076;25.626;2022-10-31T09:46:04;99819.59;;;21.15;50.99
11605;BME280;5858;43.076;25.626;2022-10-31T09:48:41;99776.34;;;20.90;51.71
11605;BME280;5858;43.076;25.626;2022-10-31T09:51:15;99808.59;;;21.10;51.40
11605;BME280;5858;43.076;25.626;2022-10-31T09:53:46;99764.53;;;20.73;51.00
11605;BME280;5858;43.076;25.626;2022-10-31T09:56:21;99823.28;;;21.09;51.34
11605;BME280;5858;43.076;25.626;2022-10-31T09:58:52;99747.63;;;20.83;51.21
11605;BME280;5858;43.076;25.626;2022-10-31T10:01:35;99700.19;;;20.79;50.28
11605;BME280;5858;43.076;25.626;2022-10-31T10:04:24;99809.66;;;21.61;50.09
11605;BME280;5858;43.076;25.626;2022-10-31T10:06:55;99716.06;;;21.10;49.49
11605;BME280;5858;43.076;25.626;2022-10-31T10:09:26;99812.44;;;21.78;49.25
11605;BME280;5858;43.076;25.626;2022-10-31T10:12:00;99738.00;;;21.44;50.10
11605;BME280;5858;43.076;25.626;2022-10-31T10:14:54;99812.81;;;21.98;48.99
11605;BME280;5858;43.076;25.626;2022-10-31T10:17:35;99725.88;;;21.23;49.09
11605;BME280;5858;43.076;25.626;2022-10-31T10:20:24;99799.66;;;21.78;49.32
11605;BME280;5858;43.076;25.626;2022-10-31T10:23:02;99803.69;;;22.04;48.67
11605;BME280;5858;43.076;25.626;2022-10-31T10:25:38;99791.31;;;21.85;48.52
11605;BME280;5858;43.076;25.626;2022-10-31T10:28:15;99758.59;;;21.68;48.30
11605;BME280;5858;43.076;25.626;2022-10-31T10:30:50;99784.41;;;21.94;47.26
11605;BME280;5858;43.076;25.626;2022-10-31T10:33:25;99811.53;;;22.17;47.07
11605;BME280;5858;43.076;25.626;2022-10-31T10:35:59;99700.72;;;21.61;47.23
11605;BME280;5858;43.076;25.626;2022-10-31T10:38:30;99790.63;;;22.06;47.26
11605;BME280;5858;43.076;25.626;2022-10-31T10:41:03;99798.56;;;22.41;47.53
11605;BME280;5858;43.076;25.626;2022-10-31T10:43:34;99791.03;;;22.65;46.72
11605;BME280;5858;43.076;25.626;2022-10-31T10:46:17;99716.25;;;22.44;45.90
11605;BME280;5858;43.076;25.626;2022-10-31T10:49:16;99687.13;;;22.11;45.69
11605;BME280;5858;43.076;25.626;2022-10-31T10:54:42;99793.06;;;22.91;44.67
11605;BME280;5858;43.076;25.626;2022-10-31T10:57:32;99754.41;;;23.00;44.32
11605;BME280;5858;43.076;25.626;2022-10-31T11:00:16;99723.75;;;22.92;43.77
11605;BME280;5858;43.076;25.626;2022-10-31T11:02:43;99769.16;;;23.20;42.93
11605;BME280;5858;43.076;25.626;2022-10-31T11:05:21;99737.84;;;23.06;42.61
11605;BME280;5858;43.076;25.626;2022-10-31T11:07:49;99648.06;;;22.66;42.60
11605;BME280;5858;43.076;25.626;2022-10-31T11:10:17;99758.00;;;23.49;41.61
11605;BME280;5858;43.076;25.626;2022-10-31T11:12:58;99721.50;;;23.33;42.01
11605;BME280;5858;43.076;25.626;2022-10-31T11:15:28;99738.16;;;23.32;42.08
11605;BME280;5858;43.076;25.626;2022-10-31T11:17:57;99778.00;;;23.54;42.27
11605;BME280;5858;43.076;25.626;2022-10-31T11:20:34;99793.47;;;23.44;42.67
11605;BME280;5858;43.076;25.626;2022-10-31T11:23:19;99732.03;;;23.19;42.71
11605;BME280;5858;43.076;25.626;2022-10-31T11:25:56;99785.31;;;23.49;43.80
11605;BME280;5858;43.076;25.626;2022-10-31T11:28:24;99768.25;;;23.37;42.90
11605;BME280;5858;43.076;25.626;2022-10-31T11:31:08;99729.34;;;22.81;43.24
11605;BME280;5858;43.076;25.626;2022-10-31T11:33:48;99761.84;;;22.82;44.19
11605;BME280;5858;43.076;25.626;2022-10-31T11:36:23;99717.28;;;22.60;44.42
11605;BME280;5858;43.076;25.626;2022-10-31T11:38:54;99757.59;;;22.91;43.95
11605;BME280;5858;43.076;25.626;2022-10-31T11:41:39;99726.63;;;22.81;43.69
11605;BME280;5858;43.076;25.626;2022-10-31T11:44:19;99665.72;;;22.20;43.84
11605;BME280;5858;43.076;25.626;2022-10-31T11:50:08;99755.88;;;23.07;44.44
11605;BME280;5858;43.076;25.626;2022-10-31T11:52:40;99649.34;;;22.37;43.76
11605;BME280;5858;43.076;25.626;2022-10-31T11:55:16;99749.59;;;23.07;43.58
11605;BME280;5858;43.076;25.626;2022-10-31T11:57:49;99757.53;;;23.08;43.40
11605;BME280;5858;43.076;25.626;2022-10-31T12:00:22;99704.28;;;22.84;43.57
11605;BME280;5858;43.076;25.626;2022-10-31T12:02:49;99717.25;;;22.77;44.10
11605;BME280;5858;43.076;25.626;2022-10-31T12:05:18;99738.22;;;22.93;44.11
11605;BME280;5858;43.076;25.626;2022-10-31T12:07:49;99762.50;;;22.73;44.97
11605;BME280;5858;43.076;25.626;2022-10-31T12:10:20;99746.47;;;22.76;44.63
11605;BME280;5858;43.076;25.626;2022-10-31T12:12:57;99671.19;;;22.20;44.73
11605;BME280;5858;43.076;25.626;2022-10-31T12:15:32;99738.44;;;22.70;44.73
11605;BME280;5858;43.076;25.626;2022-10-31T12:18:17;99745.72;;;22.64;44.46
11605;BME280;5858;43.076;25.626;2022-10-31T12:20:55;99681.94;;;22.48;44.19
11605;BME280;5858;43.076;25.626;2022-10-31T12:23:41;99691.47;;;22.46;44.29
11605;BME280;5858;43.076;25.626;2022-10-31T12:26:20;99675.22;;;22.34;44.67
11605;BME280;5858;43.076;25.626;2022-10-31T12:29:02;99715.56;;;22.71;44.29
11605;BME280;5858;43.076;25.626;2022-10-31T12:31:42;99690.53;;;22.79;43.97
11605;BME280;5858;43.076;25.626;2022-10-31T12:34:45;99742.19;;;23.24;43.17
11605;BME280;5858;43.076;25.626;2022-10-31T12:37:23;99740.53;;;23.23;43.02
11605;BME280;5858;43.076;25.626;2022-10-31T12:40:03;99733.59;;;23.15;42.38
11605;BME280;5858;43.076;25.626;2022-10-31T12:42:48;99736.25;;;23.10;42.84
11605;BME280;5858;43.076;25.626;2022-10-31T12:45:38;99705.84;;;22.80;43.63
11605;BME280;5858;43.076;25.626;2022-10-31T12:48:22;99678.03;;;22.61;44.06
11605;BME280;5858;43.076;25.626;2022-10-31T12:50:55;99667.03;;;22.56;43.84
11605;BME280;5858;43.076;25.626;2022-10-31T12:53:35;99704.44;;;22.77;43.83
11605;BME280;5858;43.076;25.626;2022-10-31T12:56:16;99654.28;;;22.61;43.11
11605;BME280;5858;43.076;25.626;2022-10-31T12:58:55;99661.03;;;22.76;43.62
11605;BME280;5858;43.076;25.626;2022-10-31T13:01:30;99720.00;;;23.20;42.38
11605;BME280;5858;43.076;25.626;2022-10-31T13:04:03;99674.31;;;22.89;42.82
11605;BME280;5858;43.076;25.626;2022-10-31T13:06:36;99690.94;;;22.87;42.32
11605;BME280;5858;43.076;25.626;2022-10-31T13:09:10;99749.84;;;23.05;42.86
11605;BME280;5858;43.076;25.626;2022-10-31T13:11:42;99753.59;;;22.99;43.33
11605;BME280;5858;43.076;25.626;2022-10-31T13:14:16;99679.59;;;22.35;43.35
11605;BME280;5858;43.076;25.626;2022-10-31T13:16:48;99716.97;;;22.56;43.55
11605;BME280;5858;43.076;25.626;2022-10-31T13:19:18;99764.50;;;22.60;44.54
11605;BME280;5858;43.076;25.626;2022-10-31T13:21:53;99705.66;;;22.26;45.06
11605;BME280;5858;43.076;25.626;2022-10-31T13:24:27;99707.38;;;22.15;45.17
11605;BME280;5858;43.076;25.626;2022-10-31T13:27:02;99703.25;;;22.13;45.47
11605;BME280;5858;43.076;25.626;2022-10-31T13:29:33;99697.94;;;21.89;45.65
11605;BME280;5858;43.076;25.626;2022-10-31T13:32:04;99777.00;;;22.23;45.90
11605;BME280;5858;43.076;25.626;2022-10-31T13:34:35;99724.19;;;21.95;45.87
11605;BME280;5858;43.076;25.626;2022-10-31T13:37:09;99691.31;;;21.68;46.25
11605;BME280;5858;43.076;25.626;2022-10-31T13:39:50;99704.56;;;21.77;46.67
11605;BME280;5858;43.076;25.626;2022-10-31T13:42:41;99708.00;;;21.72;47.20